Time;durP1;ratioP1;P1;durP2;ratioP2;P2;SDS_P1;SDS_P2;PMS_P1;PMS_P2;Temp;Humidity;BMP_temperature;BMP_pressure;BME280_temperature;BME280_humidity;BME280_pressure;Samples;Min_cycle;Max_cycle;Signal;HPM_P1;HPM_P2
2020/12/27 00:00:40;;;;;;;2.00;1.80;;;2.00;52.60;;;;;;5019652;28;20207;-64
2020/12/27 00:03:07;;;;;;;1.93;1.63;;;2.00;52.60;;;;;;5017305;28;20851;-64
2020/12/27 00:05:37;;;;;;;1.73;1.63;;;2.00;52.70;;;;;;5012541;28;20214;-65
2020/12/27 00:08:04;;;;;;;2.33;1.77;;;2.00;52.70;;;;;;5015951;28;20226;-60
2020/12/27 00:10:31;;;;;;;1.90;1.80;;;2.00;52.70;;;;;;5013805;28;20218;-64
2020/12/27 00:12:57;;;;;;;1.90;1.80;;;2.00;52.80;;;;;;5019262;28;20221;-62
2020/12/27 00:15:24;;;;;;;2.20;1.87;;;2.00;52.90;;;;;;5019262;28;20233;-63
2020/12/27 00:17:50;;;;;;;2.17;1.97;;;1.90;52.90;;;;;;5020100;28;20241;-62
2020/12/27 00:20:17;;;;;;;2.10;1.90;;;1.90;53.50;;;;;;5018092;28;20218;-63
2020/12/27 00:22:46;;;;;;;2.37;2.10;;;1.90;52.90;;;;;;5017879;28;20260;-63
2020/12/27 00:25:14;;;;;;;2.43;1.70;;;1.90;53.00;;;;;;5019089;28;20806;-63
2020/12/27 00:27:40;;;;;;;4.37;2.33;;;1.90;52.90;;;;;;5019124;28;20222;-64
2020/12/27 00:30:07;;;;;;;2.30;1.73;;;1.80;53.10;;;;;;5017743;28;20218;-64
2020/12/27 00:32:34;;;;;;;2.50;2.07;;;1.80;53.00;;;;;;5018882;28;20710;-62
2020/12/27 00:35:02;;;;;;;2.10;1.90;;;1.80;52.80;;;;;;5018652;28;20222;-62
2020/12/27 00:37:32;;;;;;;2.03;1.40;;;1.80;52.90;;;;;;5018930;28;20225;-64
2020/12/27 00:39:59;;;;;;;1.90;1.73;;;1.70;52.80;;;;;;5020693;28;20222;-62
2020/12/27 00:42:26;;;;;;;2.13;1.60;;;1.70;52.80;;;;;;5017864;28;20778;-62
2020/12/27 00:44:52;;;;;;;2.70;1.70;;;1.60;52.80;;;;;;5022427;28;20264;-64
2020/12/27 00:47:19;;;;;;;2.20;1.93;;;1.70;53.00;;;;;;5023226;28;20226;-64
2020/12/27 00:49:45;;;;;;;1.97;1.67;;;1.60;53.00;;;;;;5022717;28;20203;-65
2020/12/27 00:52:15;;;;;;;2.00;1.80;;;1.60;53.00;;;;;;5023378;28;20216;-57
2020/12/27 00:54:41;;;;;;;2.33;1.83;;;1.60;53.00;;;;;;5022970;28;20226;-61
2020/12/27 00:57:08;;;;;;;2.47;1.80;;;1.60;53.10;;;;;;5023621;28;20714;-63
2020/12/27 00:59:35;;;;;;;1.90;1.70;;;1.60;53.00;;;;;;5024006;28;20232;-63
2020/12/27 01:02:02;;;;;;;1.60;1.50;;;1.50;52.90;;;;;;5022883;28;20218;-64
2020/12/27 01:04:28;;;;;;;2.10;1.73;;;1.50;53.00;;;;;;5022652;28;20210;-61
2020/12/27 01:06:57;;;;;;;1.60;1.50;;;1.50;52.90;;;;;;5023446;28;20234;-60
2020/12/27 01:09:23;;;;;;;1.83;1.60;;;1.50;53.10;;;;;;5022684;28;20301;-63
2020/12/27 01:11:50;;;;;;;1.73;1.40;;;1.50;53.10;;;;;;5021446;28;20207;-63
2020/12/27 01:14:16;;;;;;;1.90;1.67;;;1.50;53.10;;;;;;5022285;28;20624;-58
2020/12/27 01:16:49;;;;;;;1.70;1.60;;;1.50;53.10;;;;;;5022720;28;20590;-61
2020/12/27 01:19:15;;;;;;;1.43;1.27;;;1.40;53.20;;;;;;5024001;28;20221;-64
2020/12/27 01:21:43;;;;;;;1.93;1.47;;;1.40;53.10;;;;;;5021623;28;20210;-65
2020/12/27 01:24:10;;;;;;;1.60;1.43;;;1.40;53.10;;;;;;5024071;28;20206;-64
2020/12/27 01:26:37;;;;;;;1.47;1.37;;;1.40;53.10;;;;;;5020808;28;20226;-62
2020/12/27 01:29:04;;;;;;;1.93;1.37;;;1.40;53.10;;;;;;5023864;28;20580;-61
2020/12/27 01:31:32;;;;;;;1.87;1.50;;;1.40;53.10;;;;;;5022809;28;20203;-59
2020/12/27 01:33:59;;;;;;;1.30;1.20;;;1.40;53.10;;;;;;5026944;28;20277;-63
2020/12/27 01:36:28;;;;;;;1.57;1.37;;;1.40;53.10;;;;;;5026661;28;20857;-58
2020/12/27 01:38:55;;;;;;;1.47;1.37;;;1.40;53.10;;;;;;5027321;28;20293;-61
2020/12/27 01:41:22;;;;;;;1.53;1.27;;;1.40;53.30;;;;;;5027000;28;20198;-61
2020/12/27 01:44:05;;;;;;;1.40;1.30;;;1.40;53.30;;;;;;5021927;28;20210;-61
2020/12/27 01:46:32;;;;;;;1.53;1.30;;;1.40;53.30;;;;;;5020194;28;20594;-60
2020/12/27 01:49:00;;;;;;;1.50;1.40;;;1.50;53.30;;;;;;5022218;28;20764;-61
2020/12/27 01:51:27;;;;;;;1.30;1.20;;;1.50;53.20;;;;;;5021177;28;20292;-62
2020/12/27 01:53:53;;;;;;;1.43;1.33;;;1.50;53.20;;;;;;5014477;28;20210;-61
2020/12/27 01:56:27;;;;;;;0.93;0.93;;;1.50;53.10;;;;;;5020499;28;20717;-62
2020/12/27 01:59:01;;;;;;;1.37;1.13;;;1.50;53.10;;;;;;5020674;28;20341;-62
2020/12/27 02:01:28;;;;;;;1.13;1.03;;;1.50;53.10;;;;;;5020647;28;20245;-62
2020/12/27 02:03:55;;;;;;;1.10;1.00;;;1.50;53.10;;;;;;5020183;28;20202;-61
2020/12/27 02:06:22;;;;;;;1.63;1.37;;;1.50;53.10;;;;;;5021195;28;20231;-60
2020/12/27 02:08:50;;;;;;;1.73;1.63;;;1.50;53.10;;;;;;5020232;28;20215;-58
2020/12/27 02:11:19;;;;;;;1.40;1.30;;;1.50;53.10;;;;;;5019523;28;20251;-63
2020/12/27 02:13:50;;;;;;;1.50;1.30;;;1.60;53.10;;;;;;5021633;28;20211;-61
2020/12/27 02:16:21;;;;;;;1.50;1.40;;;1.60;53.10;;;;;;5021823;28;20230;-65
2020/12/27 02:18:50;;;;;;;1.53;1.30;;;1.60;53.00;;;;;;5021636;28;20215;-64
2020/12/27 02:21:16;;;;;;;1.87;1.60;;;1.60;53.00;;;;;;5019161;28;20206;-62
2020/12/27 02:23:44;;;;;;;1.50;1.30;;;1.60;53.00;;;;;;5020252;28;20210;-64
2020/12/27 02:26:11;;;;;;;1.43;1.33;;;1.60;53.00;;;;;;5021591;28;20219;-59
2020/12/27 02:28:38;;;;;;;2.50;1.60;;;1.60;53.00;;;;;;5021576;28;20219;-60
2020/12/27 02:31:04;;;;;;;1.60;1.40;;;1.60;53.00;;;;;;5021829;28;21232;-62
2020/12/27 02:33:31;;;;;;;1.77;1.40;;;1.60;52.90;;;;;;5021279;28;20206;-59
2020/12/27 02:35:57;;;;;;;1.27;1.17;;;1.50;52.80;;;;;;5020835;28;20735;-62
2020/12/27 02:38:24;;;;;;;1.60;1.50;;;1.60;52.90;;;;;;5020221;28;20640;-63
2020/12/27 02:40:51;;;;;;;1.67;1.40;;;1.50;52.80;;;;;;5019838;28;20578;-59
2020/12/27 02:43:19;;;;;;;1.20;1.10;;;1.50;52.80;;;;;;5020205;28;20281;-60
2020/12/27 02:45:47;;;;;;;1.47;1.30;;;1.50;53.50;;;;;;5022259;28;20228;-64
2020/12/27 02:48:14;;;;;;;1.63;1.20;;;1.50;52.80;;;;;;5020978;28;20198;-60
2020/12/27 02:50:41;;;;;;;1.57;1.47;;;1.50;52.80;;;;;;5020766;28;20203;-62
2020/12/27 02:53:07;;;;;;;1.43;1.27;;;1.40;52.70;;;;;;5020601;28;20242;-64
2020/12/27 02:55:34;;;;;;;1.30;1.20;;;1.40;52.80;;;;;;5020152;28;20461;-58
2020/12/27 02:58:00;;;;;;;1.30;1.20;;;1.40;52.80;;;;;;5020720;28;20215;-60
2020/12/27 03:00:30;;;;;;;1.33;1.23;;;1.40;52.80;;;;;;5052870;22;20355;-65
2020/12/27 03:02:57;;;;;;;1.33;1.23;;;1.40;52.90;;;;;;5057668;28;20207;-64
2020/12/27 03:05:23;;;;;;;1.43;1.20;;;1.40;52.90;;;;;;5056857;28;20214;-66
2020/12/27 03:07:50;;;;;;;1.33;1.07;;;1.40;52.90;;;;;;5060186;28;20205;-66
2020/12/27 03:10:17;;;;;;;1.77;1.20;;;1.30;52.90;;;;;;5052360;28;20225;-65
2020/12/27 03:12:46;;;;;;;1.93;1.13;;;1.40;53.00;;;;;;5057820;28;20212;-66
2020/12/27 03:15:13;;;;;;;1.50;1.27;;;1.30;53.00;;;;;;5059314;28;20275;-65
2020/12/27 03:17:40;;;;;;;1.30;1.20;;;1.30;53.00;;;;;;5062578;28;20205;-66
2020/12/27 03:20:16;;;;;;;1.20;1.10;;;1.30;53.00;;;;;;5052549;28;20214;-66
2020/12/27 03:22:43;;;;;;;1.30;1.20;;;1.30;53.00;;;;;;5058990;28;20332;-65
2020/12/27 03:25:09;;;;;;;1.33;1.23;;;1.40;53.10;;;;;;5057522;28;20217;-64
2020/12/27 03:27:36;;;;;;;2.10;1.43;;;1.40;53.10;;;;;;5063421;28;20197;-65
2020/12/27 03:30:04;;;;;;;2.43;1.40;;;1.40;53.00;;;;;;5055293;28;20593;-65
2020/12/27 03:32:31;;;;;;;1.63;1.50;;;1.40;53.00;;;;;;5061270;28;20205;-66
2020/12/27 03:34:58;;;;;;;1.37;1.27;;;1.40;53.00;;;;;;5056742;28;20241;-66
2020/12/27 03:37:25;;;;;;;1.80;1.70;;;1.40;53.10;;;;;;5059228;28;20197;-65
2020/12/27 03:39:51;;;;;;;1.50;1.40;;;1.40;53.10;;;;;;5056909;28;20229;-65
2020/12/27 03:42:18;;;;;;;1.47;1.37;;;1.40;53.00;;;;;;5059837;28;20288;-65
2020/12/27 03:44:44;;;;;;;1.47;1.30;;;1.40;53.00;;;;;;5059631;28;20287;-65
2020/12/27 03:47:11;;;;;;;1.50;1.40;;;1.40;53.00;;;;;;5058990;28;20201;-66
2020/12/27 03:49:37;;;;;;;1.40;1.30;;;1.40;53.00;;;;;;5060029;28;20232;-65
2020/12/27 03:52:04;;;;;;;1.40;1.30;;;1.40;53.00;;;;;;5060454;28;20212;-65
2020/12/27 03:54:30;;;;;;;1.23;1.13;;;1.40;53.00;;;;;;5062878;28;20294;-64
2020/12/27 03:56:57;;;;;;;1.20;1.10;;;1.40;52.90;;;;;;5057192;28;20209;-65
2020/12/27 03:59:23;;;;;;;1.40;1.30;;;1.40;52.90;;;;;;5059107;28;20240;-65
2020/12/27 04:01:49;;;;;;;1.17;1.07;;;1.40;52.90;;;;;;5053384;28;20228;-65
2020/12/27 04:04:16;;;;;;;1.63;1.20;;;1.30;52.80;;;;;;5057960;28;20208;-64
2020/12/27 04:06:42;;;;;;;1.20;1.10;;;1.40;52.90;;;;;;5059331;28;20201;-64
2020/12/27 04:09:09;;;;;;;1.13;1.03;;;1.40;52.90;;;;;;5061319;28;20227;-65
2020/12/27 04:11:36;;;;;;;1.77;1.37;;;1.30;52.80;;;;;;5054202;28;20209;-65
2020/12/27 04:14:03;;;;;;;1.13;1.07;;;1.30;52.90;;;;;;5055094;28;20202;-65
2020/12/27 04:16:29;;;;;;;1.60;1.30;;;1.30;52.90;;;;;;5060775;28;20209;-65
2020/12/27 04:18:56;;;;;;;1.20;1.10;;;1.30;52.90;;;;;;5058156;28;20673;-64
2020/12/27 04:21:22;;;;;;;1.20;1.10;;;1.30;52.90;;;;;;5058451;28;20303;-66
2020/12/27 04:23:49;;;;;;;1.20;1.10;;;1.30;52.90;;;;;;5057097;28;20201;-66
2020/12/27 04:26:16;;;;;;;2.10;1.30;;;1.20;52.80;;;;;;5059317;28;20258;-65
2020/12/27 04:28:43;;;;;;;1.20;1.10;;;1.20;53.50;;;;;;5059229;28;20201;-65
2020/12/27 04:31:13;;;;;;;1.40;1.23;;;1.20;52.90;;;;;;5057991;28;20709;-65
2020/12/27 04:33:40;;;;;;;1.23;1.13;;;1.20;52.90;;;;;;5061898;28;20198;-65
2020/12/27 04:36:07;;;;;;;1.30;1.10;;;1.30;52.90;;;;;;5059045;28;20233;-65
2020/12/27 04:38:34;;;;;;;0.93;0.93;;;1.20;52.90;;;;;;5058457;28;20209;-65
2020/12/27 04:41:02;;;;;;;1.20;1.10;;;1.20;52.90;;;;;;5056660;28;20238;-65
2020/12/27 04:43:29;;;;;;;1.57;1.10;;;1.20;52.90;;;;;;5063271;28;20681;-64
2020/12/27 04:46:01;;;;;;;1.00;0.93;;;1.20;52.90;;;;;;5055864;28;20209;-65
2020/12/27 04:48:27;;;;;;;1.07;1.07;;;1.20;52.90;;;;;;5059650;28;20251;-64
2020/12/27 04:50:55;;;;;;;1.10;1.00;;;1.20;53.00;;;;;;5052407;28;20825;-64
2020/12/27 04:53:21;;;;;;;1.57;1.30;;;1.20;52.90;;;;;;5057999;28;20206;-65
2020/12/27 04:55:51;;;;;;;1.40;1.30;;;1.10;52.80;;;;;;5058813;28;20233;-65
2020/12/27 04:58:22;;;;;;;1.10;1.00;;;1.20;52.80;;;;;;5059783;28;20206;-65
2020/12/27 05:00:50;;;;;;;1.53;1.30;;;1.20;52.80;;;;;;5058699;28;20271;-65
2020/12/27 05:03:16;;;;;;;1.33;1.00;;;1.20;52.80;;;;;;5055102;28;20296;-64
2020/12/27 05:05:43;;;;;;;1.83;1.47;;;1.10;52.80;;;;;;5058247;28;20205;-64
2020/12/27 05:08:10;;;;;;;1.40;1.20;;;1.10;52.80;;;;;;5059093;28;20213;-64
2020/12/27 05:10:40;;;;;;;1.20;1.10;;;1.10;52.70;;;;;;5051336;28;20225;-64
2020/12/27 05:13:08;;;;;;;1.33;1.20;;;1.10;52.70;;;;;;5068046;28;20720;-65
2020/12/27 05:15:35;;;;;;;1.00;0.97;;;1.10;52.70;;;;;;5060466;28;20756;-64
2020/12/27 05:18:04;;;;;;;1.27;1.13;;;1.10;52.70;;;;;;5058983;28;20206;-64
2020/12/27 05:20:32;;;;;;;1.00;0.90;;;1.10;52.70;;;;;;5056647;28;20345;-66
2020/12/27 05:23:00;;;;;;;1.27;0.90;;;1.10;52.80;;;;;;5056156;28;20213;-68
2020/12/27 05:25:28;;;;;;;1.07;0.97;;;1.10;52.70;;;;;;5061221;28;20265;-65
2020/12/27 05:28:01;;;;;;;0.93;0.83;;;1.00;52.70;;;;;;5052912;28;20868;-65
2020/12/27 05:30:28;;;;;;;1.07;0.97;;;1.00;52.70;;;;;;5059777;28;20234;-65
2020/12/27 05:32:56;;;;;;;0.80;0.80;;;1.00;52.70;;;;;;5066532;28;20201;-65
2020/12/27 05:35:24;;;;;;;1.03;0.93;;;1.00;52.70;;;;;;5056854;28;20284;-65
2020/12/27 05:37:52;;;;;;;1.20;1.00;;;1.00;52.70;;;;;;5058230;28;20217;-65
2020/12/27 05:40:19;;;;;;;0.90;0.70;;;1.00;52.70;;;;;;5052471;28;20326;-64
2020/12/27 05:42:47;;;;;;;0.80;0.77;;;1.00;52.70;;;;;;5061460;28;20212;-64
2020/12/27 05:45:15;;;;;;;0.90;0.90;;;1.00;52.70;;;;;;5057487;28;20205;-65
2020/12/27 05:47:44;;;;;;;1.30;1.20;;;1.00;52.70;;;;;;5061069;28;20274;-64
2020/12/27 05:50:16;;;;;;;1.33;1.13;;;1.00;52.70;;;;;;5054995;28;20265;-65
2020/12/27 05:52:47;;;;;;;1.53;1.43;;;1.00;52.70;;;;;;5062736;28;20213;-65
2020/12/27 05:55:19;;;;;;;1.10;1.00;;;0.90;52.50;;;;;;5061465;28;20229;-64
2020/12/27 05:57:51;;;;;;;1.90;1.10;;;0.90;52.60;;;;;;5059790;28;20239;-64
2020/12/27 06:00:23;;;;;;;1.20;1.10;;;0.90;52.60;;;;;;5056322;28;20236;-64
2020/12/27 06:02:58;;;;;;;1.10;1.00;;;0.90;52.60;;;;;;5059079;28;20217;-65
2020/12/27 06:06:13;;;;;;;1.03;0.97;;;0.90;52.70;;;;;;5062487;28;20693;-65
2020/12/27 06:09:07;;;;;;;0.77;0.77;;;0.90;52.70;;;;;;5060554;28;20208;-64
2020/12/27 06:12:02;;;;;;;1.23;1.10;;;0.80;52.80;;;;;;5054230;28;20224;-64
2020/12/27 06:14:41;;;;;;;2.40;0.90;;;0.80;52.80;;;;;;5062686;28;20205;-65
2020/12/27 06:17:16;;;;;;;1.20;1.10;;;0.80;53.10;;;;;;5061814;28;20224;-65
2020/12/27 06:20:01;;;;;;;1.17;0.90;;;0.80;53.30;;;;;;5058211;28;20235;-65
2020/12/27 06:22:30;;;;;;;1.13;1.03;;;0.80;53.20;;;;;;5062368;28;20201;-65
2020/12/27 06:25:01;;;;;;;0.77;0.73;;;0.80;53.00;;;;;;5065983;28;20678;-64
2020/12/27 06:27:29;;;;;;;1.43;0.90;;;0.80;53.00;;;;;;5062616;28;20209;-66
2020/12/27 06:30:04;;;;;;;1.07;0.90;;;0.80;53.00;;;;;;5064256;28;20225;-64
2020/12/27 06:32:39;;;;;;;0.90;0.90;;;0.80;53.00;;;;;;5063852;28;20205;-64
2020/12/27 06:35:07;;;;;;;1.20;1.10;;;0.90;53.00;;;;;;5059336;28;20232;-64
2020/12/27 06:37:42;;;;;;;1.13;1.03;;;0.90;53.00;;;;;;5060987;28;20209;-65
2020/12/27 06:40:10;;;;;;;1.63;0.83;;;0.90;53.00;;;;;;5058298;28;20228;-65
2020/12/27 06:42:37;;;;;;;1.10;1.00;;;0.90;52.90;;;;;;5054409;28;20204;-65
2020/12/27 06:45:06;;;;;;;0.90;0.90;;;0.80;52.90;;;;;;5062018;28;20208;-65
2020/12/27 06:47:49;;;;;;;1.10;1.00;;;0.80;52.90;;;;;;5062794;28;20212;-65
2020/12/27 06:50:18;;;;;;;1.23;0.90;;;0.80;53.00;;;;;;5050301;28;20315;-65
2020/12/27 06:52:46;;;;;;;1.30;1.00;;;0.80;53.00;;;;;;5061052;28;20205;-65
2020/12/27 06:55:32;;;;;;;1.07;0.97;;;0.80;53.00;;;;;;5062647;28;20221;-65
2020/12/27 06:58:24;;;;;;;1.10;1.00;;;0.80;53.00;;;;;;5060213;28;20209;-66
2020/12/27 07:01:13;;;;;;;1.00;0.90;;;0.80;53.10;;;;;;5059739;28;20615;-65
2020/12/27 07:03:41;;;;;;;0.80;0.80;;;0.80;53.10;;;;;;5054385;28;20217;-66
2020/12/27 07:06:20;;;;;;;1.00;0.90;;;0.90;53.10;;;;;;5055183;28;20205;-66
2020/12/27 07:08:47;;;;;;;1.30;1.20;;;0.90;53.10;;;;;;5053893;28;20358;-66
2020/12/27 07:11:21;;;;;;;1.10;1.00;;;0.90;53.00;;;;;;5053361;28;20213;-67
2020/12/27 07:13:52;;;;;;;0.80;0.80;;;0.90;53.00;;;;;;5058012;28;20215;-65
2020/12/27 07:16:19;;;;;;;1.17;1.07;;;0.90;53.00;;;;;;5050868;28;20322;-66
2020/12/27 07:18:47;;;;;;;1.30;1.20;;;1.00;53.10;;;;;;5055548;28;20197;-66
2020/12/27 07:21:19;;;;;;;0.87;0.80;;;1.00;53.10;;;;;;5051709;28;20233;-66
2020/12/27 07:24:18;;;;;;;0.80;0.80;;;1.00;53.10;;;;;;5061124;28;20568;-64
2020/12/27 07:26:47;;;;;;;0.77;0.77;;;1.00;53.10;;;;;;5061572;28;20204;-65
2020/12/27 07:29:18;;;;;;;0.93;0.93;;;1.10;53.10;;;;;;5062497;28;20645;-64
2020/12/27 07:31:45;;;;;;;1.00;0.80;;;1.10;53.20;;;;;;5056986;28;20213;-65
2020/12/27 07:34:15;;;;;;;4.93;1.03;;;1.20;53.20;;;;;;5056195;28;20204;-65
2020/12/27 07:36:42;;;;;;;0.80;0.80;;;1.20;53.80;;;;;;5052791;28;20225;-66
2020/12/27 07:39:10;;;;;;;1.03;0.93;;;1.30;53.20;;;;;;5056972;28;21031;-65
2020/12/27 07:41:40;;;;;;;1.20;1.10;;;1.30;53.80;;;;;;5058043;28;20227;-66
2020/12/27 07:44:13;;;;;;;0.93;0.83;;;1.40;53.20;;;;;;5057762;28;20225;-65
2020/12/27 07:46:41;;;;;;;0.80;0.80;;;1.50;53.20;;;;;;5053228;28;20196;-65
2020/12/27 07:49:11;;;;;;;1.10;1.00;;;1.60;53.20;;;;;;5051176;28;20233;-65
2020/12/27 07:51:38;;;;;;;1.10;1.00;;;1.60;53.10;;;;;;5051319;28;20222;-65
2020/12/27 07:54:05;;;;;;;2.03;0.93;;;1.70;53.00;;;;;;5055910;28;20255;-65
2020/12/27 07:56:34;;;;;;;0.90;0.90;;;1.80;53.00;;;;;;5059638;28;20224;-64
2020/12/27 07:59:03;;;;;;;1.73;0.80;;;1.90;52.90;;;;;;5061605;28;20262;-65
2020/12/27 08:01:33;;;;;;;1.07;1.00;;;2.00;53.00;;;;;;5063282;28;20205;-65
2020/12/27 08:04:01;;;;;;;0.80;0.80;;;2.10;52.90;;;;;;5057491;28;20197;-65
2020/12/27 08:06:30;;;;;;;0.93;0.90;;;2.10;52.80;;;;;;5060419;28;20324;-65
2020/12/27 08:09:01;;;;;;;1.00;1.00;;;2.20;52.70;;;;;;5057177;28;20270;-66
2020/12/27 08:11:29;;;;;;;1.13;0.87;;;2.30;52.60;;;;;;5060817;28;20212;-66
2020/12/27 08:13:58;;;;;;;1.07;0.90;;;2.30;52.60;;;;;;5060185;28;20287;-67
2020/12/27 08:16:26;;;;;;;1.00;1.00;;;2.50;52.60;;;;;;5054596;28;20221;-66
2020/12/27 08:19:08;;;;;;;0.90;0.90;;;2.50;52.60;;;;;;5054329;28;20630;-65
2020/12/27 08:21:36;;;;;;;1.23;1.07;;;2.60;52.50;;;;;;5060432;28;20222;-68
2020/12/27 08:24:06;;;;;;;1.03;0.93;;;2.70;52.70;;;;;;5061183;28;20209;-64
2020/12/27 08:26:36;;;;;;;0.97;0.97;;;2.90;52.70;;;;;;5055939;28;20205;-65
2020/12/27 08:29:14;;;;;;;1.10;1.00;;;3.00;52.70;;;;;;5055539;28;20207;-65
2020/12/27 08:31:42;;;;;;;1.20;1.10;;;3.10;52.50;;;;;;5056394;28;20205;-65
2020/12/27 08:34:13;;;;;;;0.80;0.80;;;3.20;52.40;;;;;;5059101;28;20216;-64
2020/12/27 08:36:44;;;;;;;1.10;1.00;;;3.30;52.20;;;;;;5057463;28;20682;-66
2020/12/27 08:39:21;;;;;;;1.40;1.13;;;3.40;52.20;;;;;;5060679;28;20223;-65
2020/12/27 08:42:02;;;;;;;1.13;1.03;;;3.50;52.20;;;;;;5057672;28;20196;-65
2020/12/27 08:44:41;;;;;;;1.27;1.17;;;3.70;52.20;;;;;;5061609;28;20213;-65
2020/12/27 08:47:24;;;;;;;1.23;1.13;;;3.80;52.00;;;;;;5058673;28;20199;-65
2020/12/27 08:50:05;;;;;;;1.20;1.10;;;3.90;51.80;;;;;;5054817;28;20242;-65
2020/12/27 08:52:33;;;;;;;1.30;1.20;;;4.00;51.70;;;;;;5055824;28;20208;-65
2020/12/27 08:55:04;;;;;;;1.33;1.20;;;4.10;51.80;;;;;;5054429;28;20221;-65
2020/12/27 08:57:32;;;;;;;4.80;1.20;;;4.20;51.80;;;;;;5056021;28;20595;-65
2020/12/27 09:00:06;;;;;;;1.20;1.10;;;4.30;51.70;;;;;;5056136;28;20241;-65
2020/12/27 09:02:33;;;;;;;1.40;1.27;;;4.40;51.60;;;;;;5058796;28;20541;-65
2020/12/27 09:05:10;;;;;;;2.50;1.33;;;4.50;51.60;;;;;;5057248;28;20283;-65
2020/12/27 09:07:39;;;;;;;1.40;1.13;;;4.60;51.20;;;;;;5061965;28;20228;-65
2020/12/27 09:10:12;;;;;;;1.73;1.20;;;4.70;51.20;;;;;;5055561;28;20213;-65
2020/12/27 09:12:55;;;;;;;1.33;1.23;;;4.70;51.00;;;;;;5061076;28;20216;-66
2020/12/27 09:15:26;;;;;;;1.30;1.20;;;4.90;51.20;;;;;;5059059;28;20240;-66
2020/12/27 09:17:56;;;;;;;1.47;1.37;;;5.00;51.10;;;;;;5061031;28;20204;-66
2020/12/27 09:20:24;;;;;;;1.43;1.13;;;5.10;50.90;;;;;;5062842;28;20838;-66
2020/12/27 09:22:52;;;;;;;1.63;1.47;;;5.20;50.80;;;;;;5062666;28;20205;-66
2020/12/27 09:25:21;;;;;;;2.10;1.10;;;5.30;50.60;;;;;;5064327;28;20564;-65
2020/12/27 09:27:50;;;;;;;1.73;1.50;;;5.40;50.50;;;;;;5063963;28;20666;-65
2020/12/27 09:30:19;;;;;;;1.40;1.20;;;5.40;50.30;;;;;;5063033;28;20227;-65
2020/12/27 09:32:47;;;;;;;1.60;1.50;;;5.50;50.10;;;;;;5057182;28;20697;-66
2020/12/27 09:35:19;;;;;;;1.43;1.33;;;5.60;50.10;;;;;;5066324;28;20293;-66
2020/12/27 09:37:47;;;;;;;1.43;1.33;;;5.80;50.10;;;;;;5066496;28;20219;-66
2020/12/27 09:40:16;;;;;;;1.40;1.30;;;5.90;50.50;;;;;;5059092;28;20240;-66
2020/12/27 09:42:43;;;;;;;1.20;1.10;;;6.20;50.90;;;;;;5065186;28;20205;-65
2020/12/27 09:45:19;;;;;;;1.70;1.37;;;6.50;51.70;;;;;;5063742;28;20233;-66
2020/12/27 09:47:57;;;;;;;1.37;1.27;;;6.90;50.80;;;;;;5062215;28;20216;-66
2020/12/27 09:50:42;;;;;;;1.30;1.20;;;7.30;50.10;;;;;;5060633;28;20233;-66
2020/12/27 09:53:18;;;;;;;1.57;1.10;;;7.80;49.80;;;;;;5062884;28;20212;-65
2020/12/27 09:55:45;;;;;;;1.30;1.10;;;8.20;49.70;;;;;;5065069;28;20243;-65
2020/12/27 09:58:12;;;;;;;1.20;1.10;;;8.70;49.90;;;;;;5065185;28;20201;-65
2020/12/27 10:00:39;;;;;;;1.30;1.10;;;9.10;49.30;;;;;;5061453;28;20229;-65
2020/12/27 10:03:05;;;;;;;1.13;1.10;;;9.50;49.00;;;;;;5063161;28;20297;-66
2020/12/27 10:05:32;;;;;;;1.33;1.23;;;9.80;48.70;;;;;;5059349;28;20259;-65
2020/12/27 10:07:58;;;;;;;1.53;1.40;;;10.20;48.50;;;;;;5067154;28;20214;-66
2020/12/27 10:10:25;;;;;;;1.50;1.33;;;10.50;48.20;;;;;;5064594;28;20229;-66
2020/12/27 10:12:52;;;;;;;3.47;1.47;;;10.80;47.70;;;;;;5058385;28;20277;-65
2020/12/27 10:15:18;;;;;;;1.63;1.33;;;11.20;47.40;;;;;;5054313;28;20213;-65
2020/12/27 10:17:45;;;;;;;1.40;1.30;;;11.50;46.80;;;;;;5064116;28;20213;-66
2020/12/27 10:20:21;;;;;;;1.77;1.50;;;11.80;46.50;;;;;;5060028;28;20223;-66
2020/12/27 10:22:48;;;;;;;2.30;1.30;;;12.00;46.20;;;;;;5064648;28;20352;-67
2020/12/27 10:25:14;;;;;;;1.43;1.33;;;12.30;45.90;;;;;;5059846;28;20209;-66
2020/12/27 10:27:43;;;;;;;1.30;1.20;;;12.50;45.70;;;;;;5060390;28;21838;-66
2020/12/27 10:30:13;;;;;;;1.63;1.30;;;12.80;45.20;;;;;;5062906;28;20231;-66
2020/12/27 10:32:50;;;;;;;1.30;1.20;;;13.10;45.30;;;;;;5059840;28;20205;-66
2020/12/27 10:35:16;;;;;;;1.30;1.20;;;13.30;45.10;;;;;;5057948;28;20216;-65
2020/12/27 10:37:43;;;;;;;2.97;1.40;;;13.60;44.40;;;;;;5060725;28;20279;-66
2020/12/27 10:40:09;;;;;;;1.40;1.30;;;13.70;44.00;;;;;;5055904;28;20229;-66
2020/12/27 10:42:36;;;;;;;2.40;1.50;;;13.90;43.70;;;;;;5056468;28;20204;-66
2020/12/27 10:45:03;;;;;;;1.30;1.20;;;14.10;43.50;;;;;;5059832;28;20210;-68
2020/12/27 10:47:29;;;;;;;1.50;1.40;;;14.30;43.20;;;;;;5064109;28;20214;-66
2020/12/27 10:49:57;;;;;;;1.40;1.30;;;14.50;43.00;;;;;;5067432;28;20228;-67
2020/12/27 10:52:23;;;;;;;1.70;1.20;;;14.70;42.50;;;;;;5066521;28;20755;-65
2020/12/27 10:54:50;;;;;;;1.50;1.40;;;14.80;42.10;;;;;;5064183;28;20274;-66
2020/12/27 10:57:16;;;;;;;1.50;1.40;;;14.90;42.00;;;;;;5060990;28;20209;-65
2020/12/27 10:59:43;;;;;;;1.67;1.57;;;14.90;41.60;;;;;;5052472;28;20237;-66
2020/12/27 11:02:14;;;;;;;1.80;1.70;;;14.90;40.80;;;;;;5056886;28;20211;-66
2020/12/27 11:04:41;;;;;;;1.37;1.27;;;14.80;40.40;;;;;;5062278;28;20197;-66
2020/12/27 11:07:08;;;;;;;1.20;1.10;;;14.60;39.90;;;;;;5063466;28;20204;-66
2020/12/27 11:09:34;;;;;;;1.27;1.17;;;14.30;39.90;;;;;;5055909;28;20228;-66
2020/12/27 11:12:00;;;;;;;1.53;1.20;;;14.10;40.20;;;;;;5052763;28;20268;-66
2020/12/27 11:14:27;;;;;;;1.30;1.20;;;13.90;40.40;;;;;;5061259;28;20588;-66
2020/12/27 11:16:53;;;;;;;1.50;1.27;;;13.80;40.40;;;;;;5060159;28;20229;-66
2020/12/27 11:19:20;;;;;;;1.20;1.10;;;13.80;40.50;;;;;;5066865;28;20252;-65
2020/12/27 11:21:47;;;;;;;2.27;1.37;;;13.70;40.70;;;;;;5061992;28;20200;-66
2020/12/27 11:24:15;;;;;;;2.07;1.63;;;13.70;40.90;;;;;;5062228;28;20212;-67
2020/12/27 11:26:41;;;;;;;1.60;1.50;;;13.70;40.90;;;;;;5055282;28;20204;-66
2020/12/27 11:29:08;;;;;;;1.57;1.47;;;13.60;41.00;;;;;;5060002;28;20732;-66
2020/12/27 11:31:36;;;;;;;1.90;1.40;;;13.60;40.80;;;;;;5060876;28;20216;-66
2020/12/27 11:34:02;;;;;;;1.70;1.20;;;13.60;40.50;;;;;;5059811;28;20215;-65
2020/12/27 11:36:29;;;;;;;1.40;1.30;;;13.60;40.50;;;;;;5062637;28;20228;-66
2020/12/27 11:38:56;;;;;;;3.10;1.33;;;13.50;40.40;;;;;;5061002;28;20673;-64
2020/12/27 11:41:23;;;;;;;1.60;1.30;;;13.50;40.50;;;;;;5047187;28;20216;-66
2020/12/27 11:43:49;;;;;;;1.30;1.20;;;13.40;40.60;;;;;;5055686;28;20218;-66
2020/12/27 11:46:15;;;;;;;1.30;1.20;;;13.40;40.50;;;;;;5054344;28;20208;-66
2020/12/27 11:48:42;;;;;;;1.43;1.20;;;13.30;40.20;;;;;;5046972;28;20212;-67
2020/12/27 11:53:51;;;;;;;1.37;1.27;;;13.00;39.00;;;;;;5069274;28;20243;-66
2020/12/27 11:56:18;;;;;;;1.30;1.20;;;12.90;39.70;;;;;;5072792;28;20692;-64
2020/12/27 11:58:44;;;;;;;1.63;1.50;;;12.70;39.90;;;;;;5072683;28;20215;-64
2020/12/27 12:01:11;;;;;;;1.63;1.50;;;12.60;40.10;;;;;;5076687;28;20216;-62
2020/12/27 12:03:38;;;;;;;1.77;1.67;;;12.40;40.10;;;;;;5061485;28;20212;-66
2020/12/27 12:06:04;;;;;;;1.47;1.37;;;12.20;40.10;;;;;;5060675;28;20196;-62
2020/12/27 12:08:31;;;;;;;1.60;1.50;;;12.00;40.00;;;;;;5060762;28;20870;-65
2020/12/27 12:10:58;;;;;;;1.63;1.53;;;11.80;40.00;;;;;;5060521;28;20213;-63
2020/12/27 12:13:25;;;;;;;2.77;1.67;;;11.50;40.00;;;;;;5058987;28;20297;-65
2020/12/27 12:15:51;;;;;;;1.43;1.33;;;11.30;40.00;;;;;;5057046;28;20225;-67
2020/12/27 12:18:17;;;;;;;1.43;1.20;;;11.10;40.10;;;;;;5060732;28;20688;-66
2020/12/27 12:20:45;;;;;;;1.30;1.20;;;10.80;40.30;;;;;;5064467;28;20219;-67
2020/12/27 12:23:13;;;;;;;1.50;1.40;;;10.60;40.80;;;;;;5066796;28;20228;-66
2020/12/27 12:25:42;;;;;;;1.33;1.23;;;10.40;41.00;;;;;;5067402;28;20204;-67
2020/12/27 12:28:09;;;;;;;2.77;1.33;;;10.20;40.90;;;;;;5067721;28;20201;-67
2020/12/27 12:30:36;;;;;;;1.60;1.50;;;10.10;41.20;;;;;;5062890;28;20245;-66
2020/12/27 12:33:02;;;;;;;1.30;1.20;;;9.90;41.40;;;;;;5066569;28;20285;-68
2020/12/27 12:35:28;;;;;;;1.97;1.33;;;9.90;41.80;;;;;;5067047;28;20227;-67
2020/12/27 12:37:55;;;;;;;3.10;2.80;;;9.80;41.90;;;;;;5066314;28;20223;-68
2020/12/27 12:40:21;;;;;;;3.30;2.87;;;9.70;42.10;;;;;;5072557;28;20250;-67
2020/12/27 12:42:47;;;;;;;2.17;1.97;;;9.70;42.20;;;;;;5070757;28;20227;-66
2020/12/27 12:45:15;;;;;;;3.00;2.70;;;9.60;42.20;;;;;;5071888;28;20209;-67
2020/12/27 12:47:41;;;;;;;4.20;3.40;;;9.50;42.20;;;;;;5070858;28;20222;-67
2020/12/27 12:50:07;;;;;;;3.60;2.43;;;9.50;42.30;;;;;;5069528;28;20784;-65
2020/12/27 12:52:34;;;;;;;1.97;1.77;;;9.40;42.30;;;;;;5070942;28;20781;-66
2020/12/27 12:55:01;;;;;;;2.07;1.40;;;9.30;42.40;;;;;;5073120;28;20204;-68
2020/12/27 12:57:28;;;;;;;1.90;1.30;;;9.20;42.40;;;;;;5072781;28;20234;-68
2020/12/27 12:59:54;;;;;;;1.30;1.20;;;9.10;42.40;;;;;;5072025;28;20213;-67
2020/12/27 13:02:21;;;;;;;2.03;1.03;;;9.00;42.20;;;;;;5067503;28;20244;-67
2020/12/27 13:04:48;;;;;;;1.67;1.50;;;8.90;42.30;;;;;;5071525;28;20219;-67
2020/12/27 13:07:14;;;;;;;1.60;1.50;;;8.80;42.40;;;;;;5073935;28;20208;-67